Resums METAR propers

 

EBAW - Antwerp/Deurne, Belgium
DistÓncia des de l'estaciˇ: SSE 9km
Actualitzaciˇ: 24/07/2024 01:50

 Vent del NO
Vent: NO 13 km/h
Temperatura: 17°C
Rosada: 12°C
Humitat: 73%
Bar˛metre: 1021 hPa
Visibilitat: 10 km
2024/07/23 23:50 EBAW 232350Z AUTO 31007KT 9999 // VV/// 17/12 Q1021
EHWO - Woensdrecht Rnla, Netherlands
DistÓncia des de l'estaciˇ: NNO 20km
Actualitzaciˇ: 24/07/2024 02:14
Molt cobert
Molt cobert
 Vent del ONO
Vent: ONO 9 km/h
Temperatura: 16°C
Rosada: 14°C
Humitat: 88%
Bar˛metre: 1021 hPa
Nuvolositat: Molt cobert
Visibilitat: 10 km
Detalls nuvolositat: Parcialment cobert 366 m
Parcialment cobert 457 m
Molt cobert 1219 m
2024/07/24 00:14 EHWO 240014Z AUTO 29005KT 240V330 9999 SCT012 SCT015 BKN040 16/14 Q1021 BLU
 
EBBR - Brussels Nationa, Belgium
DistÓncia des de l'estaciˇ: S 43km
Actualitzaciˇ: 24/07/2024 01:50
Molt cobert
Molt cobert
 Vent del ONO
Vent: ONO 9 km/h
Temperatura: 15°C
Rosada: 14°C
Humitat: 94%
Bar˛metre: 1022 hPa
Nuvolositat: Molt cobert
Visibilitat: 10 km
Detalls nuvolositat: Molt cobert 1036 m
2024/07/23 23:50 EBBR 232350Z 29005KT 9999 BKN034 15/14 Q1022 NOSIG
EHGR - Gilze-Rijen Rnla, Netherlands
DistÓncia des de l'estaciˇ: NE 47km
Actualitzaciˇ: 24/07/2024 01:55
Tapat
Tapat
 Vent del O
Vent: O 9 km/h
Temperatura: 16°C
Rosada: 14°C
Humitat: 88%
Bar˛metre: 1020 hPa
Nuvolositat: Tapat
Visibilitat: 10 km
Detalls nuvolositat: Parcialment cobert 1189 m
Molt cobert 1311 m
Tapat 7925 m
2024/07/23 23:55 EHGR 232355Z AUTO 28005KT 250V310 9999 SCT039 BKN043 OVC260 16/14 Q1020 BLU
 
EBDT - Schaffen, Belgium
DistÓncia des de l'estaciˇ: ESE 54km
Actualitzaciˇ: 23/07/2024 15:25
NO actualitzat

 Vent del O
Vent: O 19 km/h
Temperatura: 22°C
Rosada: 14°C
Humitat: 61%
Bar˛metre: 1016 hPa
Visibilitat: 10 km
2024/07/23 13:25 EBDT 231325Z AUTO 26010KT 9999 /// 22/14 Q1016 BLU
EHFS - Vlissingen, Netherlands
DistÓncia des de l'estaciˇ: ONO 60km
Actualitzaciˇ: 24/07/2024 01:55
Tapat
Tapat
 Vent del NO
Vent: NO 9 km/h
Temperatura: 16°C
Rosada: 14°C
Humitat: 88%
Bar˛metre: 1021 hPa
Nuvolositat: Tapat
Visibilitat: 10 km
Detalls nuvolositat: Molt cobert 823 m
Tapat 945 m
2024/07/23 23:55 EHFS 232355Z AUTO 31005KT 280V340 9999 BKN027/// OVC031/// 16/14 Q1021
 
EBBE - Beauvechain (baf, Belgium
DistÓncia des de l'estaciˇ: SSE 64km
Actualitzaciˇ: 24/07/2024 02:10
Molt cobert
Molt cobert
 Vent del O
Vent: O 7 km/h
Temperatura: 15°C
Rosada: 15°C
Humitat: 100%
Bar˛metre: 1021 hPa
Nuvolositat: Molt cobert
Visibilitat: 10 km
Detalls nuvolositat: Alguns n˙vols 366 m
Parcialment cobert 701 m
Molt cobert 945 m
2024/07/24 00:10 EBBE 240010Z AUTO 27004KT 9999 FEW012/// SCT023/// BKN031/// 15/15 Q1021 WHT
EHEH - Eindhoven Rnlafb, Netherlands
DistÓncia des de l'estaciˇ: ENE 69km
Actualitzaciˇ: 24/07/2024 01:55
Tapat
Tapat
 Vent del OSO
Vent: OSO 7 km/h
Temperatura: 16°C
Rosada: 14°C
Humitat: 88%
Bar˛metre: 1020 hPa
Nuvolositat: Tapat
Visibilitat: 10 km
Detalls nuvolositat: Tapat 1128 m
2024/07/23 23:55 EHEH 232355Z AUTO 25004KT 230V290 9999 OVC037 16/14 Q1020 BLU
 
EBBL - Kleine-Brogel(Ba, Belgium
DistÓncia des de l'estaciˇ: E 74km
Actualitzaciˇ: 24/07/2024 01:55
Tapat
Tapat
 Vent del OSO
Vent: OSO 11 km/h
Temperatura: 16°C
Rosada: 15°C
Humitat: 94%
Bar˛metre: 1021 hPa
Nuvolositat: Tapat
Visibilitat: 10 km
Detalls nuvolositat: Tapat 975 m
2024/07/23 23:55 EBBL 232355Z AUTO 25006KT 9999 OVC032/// 16/15 Q1021 BLU
EHRD - Rotterdam Airpor, Netherlands
DistÓncia des de l'estaciˇ: N 75km
Actualitzaciˇ: 24/07/2024 01:55
Tapat
Tapat
 Vent del ONO
Vent: ONO 9 km/h
Temperatura: 17°C
Rosada: 15°C
Humitat: 88%
Bar˛metre: 1020 hPa
Nuvolositat: Tapat
Visibilitat: 10 km
Detalls nuvolositat: Molt cobert 366 m
Molt cobert 457 m
Tapat 579 m
2024/07/23 23:55 EHRD 232355Z AUTO 30005KT 270V350 9999 BKN012/// BKN015/// OVC019/// 17/15 Q1020 TEMPO SCT014 BKN025
 
EHSC - Goeree Le Sea, Netherlands
DistÓncia des de l'estaciˇ: NO 89km
Actualitzaciˇ: 24/07/2024 01:55

 Vent del NNO
Vent: NNO 31 km/h
Temperatura: 17°C
Rosada: 14°C
Humitat: 83%
Bar˛metre: 1021 hPa
Visibilitat: 10 km
2024/07/23 23:55 EHSC 232355Z AUTO 33017KT 9999 ///////// 17/14 Q1021 W19/H12
EBCI - Charleroi/Gossel, Belgium
DistÓncia des de l'estaciˇ: S 90km
Actualitzaciˇ: 24/07/2024 01:50
Molt cobert
Molt cobert
 Vent del ONO
Vent: ONO 7 km/h
Temperatura: 15°C
Rosada: 13°C
Humitat: 88%
Bar˛metre: 1022 hPa
Nuvolositat: Molt cobert
Visibilitat: 10 km
Detalls nuvolositat: Molt cobert 762 m
2024/07/23 23:50 EBCI 232350Z 30004KT 260V340 9999 BKN025 15/13 Q1022 NOSIG
 
EBCV - Chievres Ab, Belgium
DistÓncia des de l'estaciˇ: SSO 90km
Actualitzaciˇ: 24/07/2024 01:55
Tapat
Tapat
 Vent del varies
Vent: varies 4 km/h
Temperatura: 14°C
Rosada: 13°C
Humitat: 94%
Bar˛metre: 1022 hPa
Nuvolositat: Tapat
Visibilitat: 10 km
Detalls nuvolositat: Alguns n˙vols 762 m
Molt cobert 3048 m
Tapat 3658 m
2024/07/23 23:55 EBCV 232355Z AUTO VRB02KT 9999 FEW025/// BKN100/// OVC120/// 14/13 Q1022 BLU
EHVK - Volkel Rnlafb, Netherlands
DistÓncia des de l'estaciˇ: ENE 97km
Actualitzaciˇ: 24/07/2024 01:55
Tapat
Tapat
 Vent del O
Vent: O 7 km/h
Temperatura: 16°C
Rosada: 14°C
Humitat: 88%
Bar˛metre: 1020 hPa
Nuvolositat: Tapat
Visibilitat: 10 km
Detalls nuvolositat: Alguns n˙vols 366 m
Tapat 8534 m
2024/07/23 23:55 EHVK 232355Z AUTO 27004KT 9999 FEW012 OVC280 16/14 Q1020 BLU
 
EBLG - Bierset/Liege (c, Belgium
DistÓncia des de l'estaciˇ: SE 102km
Actualitzaciˇ: 24/07/2024 01:50
Molt cobert
Molt cobert
 Vent del ONO
Vent: ONO 7 km/h
Temperatura: 16°C
Rosada: 14°C
Humitat: 88%
Bar˛metre: 1021 hPa
Nuvolositat: Molt cobert
Visibilitat: 10 km
Detalls nuvolositat: Molt cobert 792 m
2024/07/23 23:50 EBLG 232350Z 29004KT 9999 BKN026 16/14 Q1021 NOSIG
EHBK - Zuid-Limburg/Bee, Netherlands
DistÓncia des de l'estaciˇ: ESE 102km
Actualitzaciˇ: 24/07/2024 01:55
Tapat
Tapat
 Vent del ONO
Vent: ONO 7 km/h
Temperatura: 16°C
Rosada: 13°C
Humitat: 83%
Bar˛metre: 1021 hPa
Nuvolositat: Tapat
Visibilitat: 10 km
Detalls nuvolositat: Parcialment cobert 671 m
Tapat 792 m
2024/07/23 23:55 EHBK 232355Z AUTO 29004KT 250V340 9999 SCT022 OVC026 16/13 Q1021
 
EBOS - Oostende Airport, Belgium
DistÓncia des de l'estaciˇ: O 108km
Actualitzaciˇ: 24/07/2024 01:50
Parcialment cobert
Parcialment cobert
 Vent del N
Vent: N 6 km/h
Temperatura: 16°C
Rosada: 13°C
Humitat: 83%
Bar˛metre: 1022 hPa
Nuvolositat: Parcialment cobert
Visibilitat: 10 km
Detalls nuvolositat: Parcialment cobert 457 m
2024/07/23 23:50 EBOS 232350Z 35003KT 320V020 9999 SCT015 16/13 Q1022 NOSIG
EHSA - Euro Platform, Netherlands
DistÓncia des de l'estaciˇ: NO 112km
Actualitzaciˇ: 24/07/2024 01:55

 Vent del NO
Vent: NO 26 km/h
Temperatura: 16°C
Rosada: 14°C
Humitat: 88%
Bar˛metre: 1021 hPa
Visibilitat: 10 km
2024/07/23 23:55 EHSA 232355Z AUTO 32014KT 9999 ///////// 16/14 Q1021 W18/H12
 
EHAM - Amsterdam/Schiph, Netherlands
DistÓncia des de l'estaciˇ: NNE 118km
Actualitzaciˇ: 24/07/2024 01:55
Pluja dŔbil, Plugim, Parcialment cobert
Pluja dŔbil, Plugim, Parcialment cobert
 Vent del NO
Vent: NO 19 km/h
Temperatura: 17°C
Rosada: 15°C
Humitat: 88%
Bar˛metre: 1020 hPa
Resum: Pluja dŔbil, Plugim
Nuvolositat: Parcialment cobert
Visibilitat: 10 km
Detalls nuvolositat: Alguns n˙vols 305 m
Parcialment cobert 366 m
2024/07/23 23:55 EHAM 232355Z 32010KT 9999 -RADZ FEW010 SCT012 17/15 Q1020 NOSIG
ETNG - Geilenkirchen(Na, Germany
DistÓncia des de l'estaciˇ: ESE 118km
Actualitzaciˇ: 24/07/2024 01:50
Molt cobert
Molt cobert
 Vent del O
Vent: O 9 km/h
Temperatura: 16°C
Rosada: 14°C
Humitat: 88%
Bar˛metre: 1020 hPa
Nuvolositat: Molt cobert
Visibilitat: 10 km
Detalls nuvolositat: Molt cobert 823 m
2024/07/23 23:50 ETNG 232350Z 28005KT 9999 BKN027 16/14 Q1020